Odell, OR

5:04 AM PDT on October 23, 2014 (GMT -0700)
Pine Grove | Change Station
CLOSE
Current Station
Personal Weather Station
Location: Hood River, OR
Elevation: 720 ft
Nearby Weather Stations
Active Advisory: Special Statement Active Notice: Record Report

Elev 720 ft 45.64 °N, 121.50 °W | Updated 7 minutes ago

Rain
Rain
50.4 °F
Feels Like 50.4 °F
N
0.0
Wind Variable Wind from ENE
Gusts 0.0 mph

Today
High -- | Low -- °F
--% Chance of Precip.
Yesterday
High -- | Low -- °F
Precip. -- in
7:33 AM 6:06 PM
Waning Crescent, 0% visible
Pressure 29.77 in
Visibility 10.0 miles
Clouds Mostly Cloudy 4400 ft
Overcast 6000 ft
Dew Point 50 °F
Humidity 97%
Rainfall 0.02 in
Snow Depth 0 in , 0 in
UV 0 out of 12
Pollen .40 out of 12
Air Quality Not available.
Flu Activity Sporadic
METAR KDLS 231153Z AUTO 00000KT 10SM BKN044 OVC060 13/10 A2977 RMK AO2 SLP081 60002 70008 T01280100 10144 20122 51000

More Conditions Fewer Conditions

Pressure 29.77 in
Visibility 10.0 miles
Clouds Mostly Cloudy 4400 ft
Overcast 6000 ft
Dew Point 50 °F
Humidity 97%
Rainfall 0.02 in
Snow Depth 0 in , 0 in
UV 0 out of 12
Pollen .40 out of 12
Air Quality Not available.
Flu Activity Sporadic
METAR KDLS 231153Z AUTO 00000KT 10SM BKN044 OVC060 13/10 A2977 RMK AO2 SLP081 60002 70008 T01280100 10144 20122 51000

More Conditions Fewer Conditions

10-Day Weather Forecast

Almanac

Astronomy

Oct. 23, 2014 Rise Set
Actual Time 7:33 AM PDT 6:06 PM PDT
Civil Twilight 7:03 AM PDT 6:36 PM PDT
Nautical Twilight 6:28 AM PDT 7:11 PM PDT
Astronomical Twilight 5:54 AM PDT 7:45 PM PDT
Moon 7:17 AM PDT 6:11 PM PDT
Length of Visible Light 11h 33m
Length of Day
10h 33m
Tomorrow will be 2m 59s shorter.
Waning Crescent, 0% of the Moon is Illuminated
Today
Waning Crescent
Oct 23
New
Oct 30
First Quarter
Nov 6
Full
Nov 14
Last Quarter

Today's Extremes

State Highs State Lows

Community

WunderPhotos

Upload Photos

1,764,209 photos uploaded!

Nearby

Snow Depth

Station Depth Elevation
Greenpoint 0 in 3200 ft
Red Hill 0 in 4400 ft
North Fork 0 in 3120 ft
Mud Ridge 0 in 3800 ft
Clear Lake 1 in 3500 ft

Earthquake Activity

City Distance Mag. Time & Date
No recent earthquake activity has been reported nearby.
Minimum magnitude displayed is 2.5.

Coastal Water Temperatures

Place Temperature
No Stations Reporting

Nearby Weather Stations